createdAt,value
2022-08-01T00:00:48.982Z,14.78
2022-08-01T00:01:49.404Z,14.79
2022-08-01T00:02:50.305Z,14.74
2022-08-01T00:03:50.325Z,14.76
2022-08-01T00:04:50.749Z,14.76
2022-08-01T00:05:51.165Z,14.75
2022-08-01T00:06:51.677Z,14.73
2022-08-01T00:07:52.200Z,14.71
2022-08-01T00:08:52.505Z,14.72
2022-08-01T00:09:53.130Z,14.73
2022-08-01T00:10:53.452Z,14.67
2022-08-01T00:11:59.657Z,14.67
2022-08-01T00:12:57.666Z,14.68
2022-08-01T00:13:57.970Z,14.62
2022-08-01T00:14:58.386Z,14.65
2022-08-01T00:15:59.622Z,14.63
2022-08-01T00:17:03.895Z,14.62
2022-08-01T00:18:04.550Z,14.59
2022-08-01T00:19:04.970Z,14.54
2022-08-01T00:20:09.070Z,14.55
2022-08-01T00:21:06.618Z,14.56
2022-08-01T00:22:07.532Z,14.57
2022-08-01T00:23:07.560Z,14.52
2022-08-01T00:24:08.386Z,14.52
2022-08-01T00:25:12.785Z,14.53
2022-08-01T00:26:15.932Z,14.55
2022-08-01T00:27:13.923Z,14.58
2022-08-01T00:28:14.241Z,14.55
2022-08-01T00:30:12.431Z,14.53
2022-08-01T00:30:16.723Z,14.51
2022-08-01T00:31:17.138Z,14.55
2022-08-01T00:32:17.648Z,14.53
2022-08-01T00:33:18.061Z,14.52
2022-08-01T00:34:18.598Z,14.5
2022-08-01T00:35:18.854Z,14.5
2022-08-01T00:36:19.419Z,14.51
2022-08-01T00:37:20.144Z,14.52
2022-08-01T00:38:20.249Z,14.52
2022-08-01T00:39:20.665Z,14.53
2022-08-01T00:40:21.901Z,14.52
2022-08-01T00:41:21.697Z,14.48
2022-08-01T00:42:22.428Z,14.48
2022-08-01T00:43:22.440Z,14.44
2022-08-01T00:44:22.955Z,14.43
2022-08-01T00:45:23.665Z,14.43
2022-08-01T00:46:23.775Z,14.45
2022-08-01T00:47:24.400Z,14.48
2022-08-01T00:48:25.058Z,14.49
2022-08-01T00:49:25.318Z,14.52
2022-08-01T00:50:26.396Z,14.48
2022-08-01T00:51:26.789Z,14.47
2022-08-01T00:52:26.584Z,14.42
2022-08-01T00:53:27.218Z,14.44
2022-08-01T00:54:29.578Z,14.4
2022-08-01T00:55:30.297Z,14.41
2022-08-01T00:56:30.298Z,14.42
2022-08-01T00:58:01.716Z,14.38
2022-08-01T00:58:34.309Z,14.35
2022-08-01T00:59:35.339Z,14.38
2022-08-01T01:00:53.899Z,14.39
2022-08-01T01:01:39.974Z,14.4
2022-08-01T01:02:37.766Z,14.43
2022-08-01T01:03:57.944Z,14.43
2022-08-01T01:04:40.280Z,14.4
2022-08-01T01:14:05.326Z,14.39
2022-08-01T01:17:10.157Z,14.33
2022-08-01T01:19:14.571Z,14.33
2022-08-01T01:20:15.098Z,14.33
2022-08-01T01:30:34.787Z,14.3
2022-08-01T01:33:47.446Z,14.28
2022-08-01T01:34:48.843Z,14.31
2022-08-01T01:38:55.107Z,14.33
2022-08-01T01:39:55.375Z,14.31
2022-08-01T01:40:57.012Z,14.31
2022-08-01T01:41:57.420Z,14.3
2022-08-01T01:42:57.840Z,14.27
2022-08-01T01:43:57.565Z,14.31
2022-08-01T01:44:58.051Z,14.3
2022-08-01T01:45:58.169Z,14.32
2022-08-01T01:46:59.517Z,14.33
2022-08-01T01:47:59.610Z,14.33
2022-08-01T01:49:00.542Z,14.28
2022-08-01T01:50:01.157Z,14.26
2022-08-01T01:51:00.496Z,14.27
2022-08-01T01:52:02.760Z,14.3
2022-08-01T01:53:02.565Z,14.33
2022-08-01T01:54:03.863Z,14.3
2022-08-01T01:55:06.916Z,14.31
2022-08-01T01:56:05.820Z,14.29
2022-08-01T01:57:07.864Z,14.27
2022-08-01T01:58:08.289Z,14.3
2022-08-01T01:59:06.451Z,14.35
2022-08-01T02:00:11.570Z,14.37
2022-08-01T02:01:14.491Z,14.35
2022-08-01T02:02:14.006Z,14.35
2022-08-01T02:03:13.850Z,14.35
2022-08-01T02:04:14.620Z,14.34
2022-08-01T02:05:14.693Z,14.32
2022-08-01T02:06:15.603Z,14.32
2022-08-01T02:07:20.938Z,14.31
2022-08-01T02:08:18.867Z,14.31
2022-08-01T02:09:20.621Z,14.31
2022-08-01T02:10:20.352Z,14.31
2022-08-01T02:11:22.218Z,14.29
2022-08-01T02:12:22.210Z,14.29
2022-08-01T02:13:22.297Z,14.32
2022-08-01T02:14:23.950Z,14.33
2022-08-01T02:15:25.090Z,14.33
2022-08-01T02:16:27.350Z,14.36
2022-08-01T02:17:26.040Z,14.37
2022-08-01T02:18:25.410Z,14.35
2022-08-01T02:19:26.139Z,14.34
2022-08-01T02:20:30.042Z,14.33
2022-08-01T02:23:38.150Z,14.39
2022-08-01T02:26:43.072Z,14.38
2022-08-01T02:28:51.850Z,14.39
2022-08-01T02:29:51.079Z,14.37
2022-08-01T02:30:50.869Z,14.36
2022-08-01T02:31:49.769Z,14.37
2022-08-01T02:32:52.947Z,14.36
2022-08-01T02:34:54.914Z,14.33
2022-08-01T02:36:30.521Z,14.33
2022-08-01T02:36:57.595Z,14.34
2022-08-01T02:37:57.900Z,14.34
2022-08-01T02:38:57.618Z,14.33
2022-08-01T02:39:56.330Z,14.31
2022-08-01T02:40:58.949Z,14.33
2022-08-01T02:42:01.712Z,14.36
2022-08-01T02:43:03.047Z,14.33
2022-08-01T02:44:05.814Z,14.34
2022-08-01T02:45:05.824Z,14.35
2022-08-01T02:46:07.057Z,14.34
2022-08-01T02:47:05.449Z,14.36
2022-08-01T02:49:09.728Z,14.35
2022-08-01T02:50:09.849Z,14.38
2022-08-01T02:51:09.547Z,14.38
2022-08-01T02:52:15.303Z,14.36
2022-08-01T02:53:14.985Z,14.37
2022-08-01T02:54:16.030Z,14.4
2022-08-01T02:55:15.005Z,14.39
2022-08-01T02:56:16.338Z,14.4
2022-08-01T02:57:16.368Z,14.39
2022-08-01T02:58:20.760Z,14.35
2022-08-01T02:59:22.598Z,14.37
2022-08-01T03:00:20.568Z,14.36
2022-08-01T03:01:23.490Z,14.34
2022-08-01T03:02:25.912Z,14.29
2022-08-01T03:03:25.303Z,14.24
2022-08-01T03:04:26.914Z,14.26
2022-08-01T03:05:27.155Z,14.25
2022-08-01T03:06:27.976Z,14.25
2022-08-01T03:07:34.240Z,14.26
2022-08-01T03:08:30.051Z,14.3
2022-08-01T03:09:30.147Z,14.28
2022-08-01T03:10:30.569Z,14.25
2022-08-01T03:11:30.481Z,14.27
2022-08-01T03:12:34.053Z,14.28
2022-08-01T03:13:33.347Z,14.2
2022-08-01T03:14:36.528Z,14.16
2022-08-01T03:15:37.562Z,14.18
2022-08-01T03:16:38.851Z,14.2
2022-08-01T03:17:39.010Z,14.21
2022-08-01T03:18:37.900Z,14.15
2022-08-01T03:19:39.368Z,14.16
2022-08-01T03:20:37.695Z,14.15
2022-08-01T03:21:39.440Z,14.12
2022-08-01T03:22:39.983Z,14.08
2022-08-01T03:23:40.280Z,14.06
2022-08-01T03:24:41.321Z,14.04
2022-08-01T03:25:42.584Z,14.03
2022-08-01T03:26:42.386Z,14.03
2022-08-01T03:27:43.070Z,14.04
2022-08-01T03:28:45.431Z,14.05
2022-08-01T03:29:44.510Z,14.02
2022-08-01T03:30:44.109Z,14.04
2022-08-01T03:31:45.964Z,14.03
2022-08-01T03:32:44.638Z,14.02
2022-08-01T03:33:44.555Z,14.01
2022-08-01T03:34:45.156Z,14.04
2022-08-01T03:35:49.582Z,13.99
2022-08-01T03:36:50.523Z,13.97
2022-08-01T03:38:15.203Z,13.94
2022-08-01T03:38:51.954Z,13.94
2022-08-01T03:43:05.077Z,13.97
2022-08-01T03:44:06.821Z,13.98
2022-08-01T03:45:08.577Z,13.93
2022-08-01T03:47:12.213Z,13.9
2022-08-01T03:48:17.703Z,13.93
2022-08-01T03:50:22.541Z,13.93
2022-08-01T03:51:22.459Z,13.94
2022-08-01T03:52:21.010Z,13.95
2022-08-01T03:53:27.171Z,13.98
2022-08-01T03:54:32.828Z,13.96
2022-08-01T03:55:26.413Z,13.91
2022-08-01T03:56:27.596Z,13.91
2022-08-01T03:57:35.775Z,13.91
2022-08-01T03:58:32.883Z,13.89
2022-08-01T03:59:32.216Z,13.88
2022-08-01T04:00:31.714Z,13.86
2022-08-01T04:01:34.281Z,13.84
2022-08-01T04:02:31.926Z,13.84
2022-08-01T04:03:33.990Z,13.83
2022-08-01T04:04:35.139Z,13.86
2022-08-01T04:05:35.435Z,13.87
2022-08-01T04:06:39.131Z,13.86
2022-08-01T04:07:36.574Z,13.83
2022-08-01T04:08:38.115Z,13.82
2022-08-01T04:09:37.503Z,13.83
2022-08-01T04:10:38.645Z,13.85
2022-08-01T04:11:38.440Z,13.87
2022-08-01T04:12:38.871Z,13.86
2022-08-01T04:13:39.181Z,13.86
2022-08-01T04:14:39.992Z,13.86
2022-08-01T04:15:40.222Z,13.83
2022-08-01T04:16:40.624Z,13.8
2022-08-01T04:17:41.044Z,13.74
2022-08-01T04:18:41.353Z,13.77
2022-08-01T04:19:42.584Z,13.76
2022-08-01T04:20:42.608Z,13.75
2022-08-01T04:21:43.112Z,13.76
2022-08-01T04:22:43.323Z,13.78
2022-08-01T04:23:47.029Z,13.73
2022-08-01T04:24:54.640Z,13.74
2022-08-01T04:25:51.337Z,13.75
2022-08-01T04:26:52.051Z,13.73
2022-08-01T04:27:53.303Z,13.72
2022-08-01T04:28:53.290Z,13.71
2022-08-01T04:29:54.225Z,13.71
2022-08-01T04:30:58.491Z,13.69
2022-08-01T04:31:56.800Z,13.65
2022-08-01T04:32:58.440Z,13.61
2022-08-01T04:33:58.352Z,13.62
2022-08-01T04:35:00.206Z,13.67
2022-08-01T04:36:01.989Z,13.68
2022-08-01T04:37:03.397Z,13.68
2022-08-01T04:38:03.800Z,13.7
2022-08-01T04:39:05.047Z,13.73
2022-08-01T04:40:05.598Z,13.7
2022-08-01T04:41:08.924Z,13.7
2022-08-01T04:42:08.600Z,13.68
2022-08-01T04:43:08.754Z,13.66
2022-08-01T04:44:09.274Z,13.61
2022-08-01T04:45:09.886Z,13.64
2022-08-01T04:46:09.801Z,13.62
2022-08-01T04:47:10.949Z,13.63
2022-08-01T04:48:10.831Z,13.62
2022-08-01T04:49:12.210Z,13.64
2022-08-01T04:50:12.537Z,13.6
2022-08-01T04:51:18.320Z,13.64
2022-08-01T04:52:19.722Z,13.67
2022-08-01T04:53:21.211Z,13.67
2022-08-01T04:54:19.891Z,13.68
2022-08-01T04:55:20.403Z,13.67
2022-08-01T04:56:21.229Z,13.65
2022-08-01T04:57:21.230Z,13.67
2022-08-01T04:58:21.541Z,13.63
2022-08-01T04:59:22.219Z,13.65
2022-08-01T05:00:22.384Z,13.6
2022-08-01T05:01:23.039Z,13.56
2022-08-01T05:02:24.444Z,13.61
2022-08-01T05:03:23.830Z,13.67
2022-08-01T05:04:24.253Z,13.64
2022-08-01T05:05:25.119Z,13.61
2022-08-01T05:06:25.300Z,13.61
2022-08-01T05:07:25.702Z,13.65
2022-08-01T05:08:25.921Z,13.71
2022-08-01T05:09:30.987Z,13.63
2022-08-01T05:10:29.002Z,13.63
2022-08-01T05:11:29.314Z,13.62
2022-08-01T05:12:29.631Z,13.63
2022-08-01T05:13:30.167Z,13.63
2022-08-01T05:14:30.868Z,13.64
2022-08-01T05:15:30.917Z,13.63
2022-08-01T05:16:31.620Z,13.63
2022-08-01T05:17:31.918Z,13.63
2022-08-01T05:18:32.428Z,13.65
2022-08-01T05:19:37.041Z,13.67
2022-08-01T05:20:34.550Z,13.71
2022-08-01T05:21:35.422Z,13.67
2022-08-01T05:22:35.430Z,13.65
2022-08-01T05:23:43.226Z,13.61
2022-08-01T05:24:41.171Z,13.63
2022-08-01T05:25:56.605Z,13.66
2022-08-01T05:26:45.799Z,13.66
2022-08-01T05:27:46.006Z,13.7
2022-08-01T05:28:46.625Z,13.71
2022-08-01T05:29:46.941Z,13.71
2022-08-01T05:30:47.456Z,13.63
2022-08-01T05:31:48.087Z,13.62
2022-08-01T05:32:48.291Z,13.63
2022-08-01T05:33:48.704Z,13.61
2022-08-01T05:34:49.227Z,13.58
2022-08-01T05:35:49.565Z,13.6
2022-08-01T05:36:54.053Z,13.61
2022-08-01T05:37:54.463Z,13.64
2022-08-01T05:38:54.676Z,13.64
2022-08-01T05:39:55.169Z,13.67
2022-08-01T05:40:55.632Z,13.65
2022-08-01T05:41:56.234Z,13.66
2022-08-01T05:42:56.443Z,13.67
2022-08-01T05:43:57.169Z,13.67
2022-08-01T05:44:57.427Z,13.66
2022-08-01T05:45:57.795Z,13.68
2022-08-01T05:46:58.358Z,13.65
2022-08-01T05:47:58.651Z,13.66
2022-08-01T05:49:00.246Z,13.67
2022-08-01T05:49:59.509Z,13.72
2022-08-01T05:51:00.095Z,13.72
2022-08-01T05:52:00.595Z,13.73
2022-08-01T05:53:00.928Z,13.74
2022-08-01T05:54:01.430Z,13.79
2022-08-01T05:55:01.799Z,13.78
2022-08-01T05:56:02.062Z,13.77
2022-08-01T05:57:02.898Z,13.75
2022-08-01T05:58:03.506Z,13.65
2022-08-01T05:59:04.126Z,13.66
2022-08-01T06:00:04.789Z,13.66
2022-08-01T06:01:04.465Z,13.69
2022-08-01T06:02:05.337Z,13.75
2022-08-01T06:03:05.390Z,13.76
2022-08-01T06:04:05.796Z,13.73
2022-08-01T06:05:10.196Z,13.75
2022-08-01T06:06:10.488Z,13.72
2022-08-01T06:07:11.047Z,13.73
2022-08-01T06:08:11.255Z,13.73
2022-08-01T06:09:11.974Z,13.74
2022-08-01T06:10:12.302Z,13.74
2022-08-01T06:11:13.431Z,13.76
2022-08-01T06:12:13.120Z,13.74
2022-08-01T06:13:13.544Z,13.72
2022-08-01T06:14:13.904Z,13.74
2022-08-01T06:15:14.482Z,13.73
2022-08-01T06:16:14.809Z,13.75
2022-08-01T06:17:15.473Z,13.78
2022-08-01T06:18:16.128Z,13.83
2022-08-01T06:19:16.135Z,13.85
2022-08-01T06:20:16.570Z,13.81
2022-08-01T06:21:17.190Z,13.76
2022-08-01T06:22:17.588Z,13.77
2022-08-01T06:23:32.616Z,13.83
2022-08-01T06:24:20.570Z,13.87
2022-08-01T06:25:21.686Z,13.86
2022-08-01T06:26:21.665Z,13.81
2022-08-01T06:27:22.773Z,13.8
2022-08-01T06:28:23.157Z,13.85
2022-08-01T06:29:22.853Z,13.86
2022-08-01T06:30:23.691Z,13.82
2022-08-01T06:31:23.592Z,13.89
2022-08-01T06:32:27.159Z,13.9
2022-08-01T06:33:25.137Z,13.87
2022-08-01T06:34:25.767Z,13.87
2022-08-01T06:35:25.976Z,13.82
2022-08-01T06:36:26.611Z,13.83
2022-08-01T06:37:31.224Z,13.89
2022-08-01T06:38:29.268Z,13.95
2022-08-01T06:39:29.890Z,13.96
2022-08-01T06:40:30.302Z,13.98
2022-08-01T06:41:30.731Z,13.97
2022-08-01T06:42:31.342Z,13.99
2022-08-01T06:43:31.612Z,14.01
2022-08-01T06:44:32.067Z,14
2022-08-01T06:45:32.497Z,14
2022-08-01T06:46:33.334Z,13.94
2022-08-01T06:47:33.767Z,13.94
2022-08-01T06:48:33.850Z,13.95
2022-08-01T06:49:34.199Z,13.97
2022-08-01T06:50:34.780Z,14.01
2022-08-01T06:51:34.984Z,14
2022-08-01T06:52:36.224Z,13.94
2022-08-01T06:53:39.506Z,13.97
2022-08-01T06:54:36.971Z,14.02
2022-08-01T06:55:37.467Z,14.02
2022-08-01T06:56:37.985Z,13.99
2022-08-01T06:57:45.576Z,13.99
2022-08-01T06:58:43.126Z,13.95
2022-08-01T06:59:54.286Z,13.95
2022-08-01T07:00:47.371Z,13.94
2022-08-01T07:01:47.643Z,13.98
2022-08-01T07:02:48.164Z,13.99
2022-08-01T07:05:49.712Z,14.03
2022-08-01T07:06:50.019Z,13.99
2022-08-01T07:07:50.639Z,14.02
2022-08-01T07:08:51.158Z,13.98
2022-08-01T07:09:51.267Z,13.95
2022-08-01T07:10:52.094Z,13.99
2022-08-01T07:11:52.515Z,13.98
2022-08-01T07:12:52.613Z,14.01
2022-08-01T07:13:53.238Z,13.98
2022-08-01T07:14:53.452Z,13.93
2022-08-01T07:15:54.292Z,13.99
2022-08-01T07:16:54.384Z,13.98
2022-08-01T07:17:54.900Z,13.96
2022-08-01T07:18:55.218Z,13.97
2022-08-01T07:19:55.737Z,13.95
2022-08-01T07:20:56.254Z,13.97
2022-08-01T07:21:56.459Z,13.97
2022-08-01T07:22:56.992Z,13.97
2022-08-01T07:23:57.502Z,13.97
2022-08-01T07:24:57.918Z,13.98
2022-08-01T07:26:00.981Z,13.99
2022-08-01T07:26:58.955Z,13.98
2022-08-01T07:28:01.219Z,14
2022-08-01T07:29:01.850Z,14.01
2022-08-01T07:30:02.172Z,13.99
2022-08-01T07:31:02.878Z,13.97
2022-08-01T07:32:03.585Z,14
2022-08-01T07:33:04.014Z,14.03
2022-08-01T07:34:04.429Z,13.99
2022-08-01T07:35:05.466Z,13.93
2022-08-01T07:36:05.362Z,14
2022-08-01T07:37:06.497Z,13.97
2022-08-01T07:38:12.411Z,14
2022-08-01T07:39:10.298Z,14.02
2022-08-01T07:40:11.743Z,14
2022-08-01T07:41:11.252Z,14.03
2022-08-01T07:42:11.866Z,14.01
2022-08-01T07:43:12.069Z,14.01
2022-08-01T07:44:12.686Z,14
2022-08-01T07:45:14.126Z,13.99
2022-08-01T07:46:13.923Z,13.98
2022-08-01T07:47:14.550Z,14.04
2022-08-01T07:48:14.973Z,14.03
2022-08-01T07:49:15.443Z,14
2022-08-01T07:50:16.411Z,14.07
2022-08-01T07:51:16.109Z,14.03
2022-08-01T07:52:16.890Z,14.08
2022-08-01T07:53:17.248Z,14.04
2022-08-01T07:54:17.568Z,14.09
2022-08-01T07:55:17.988Z,14.12
2022-08-01T07:56:18.303Z,14.1
2022-08-01T07:57:18.814Z,14.13
2022-08-01T07:58:19.643Z,14.11
2022-08-01T07:59:26.056Z,14.12
2022-08-01T08:00:23.954Z,14.13
2022-08-01T08:01:24.093Z,14.13
2022-08-01T08:02:24.661Z,14.11
2022-08-01T08:03:24.975Z,14.08
2022-08-01T08:04:25.579Z,14.13
2022-08-01T08:05:57.818Z,14.19
2022-08-01T08:06:26.346Z,14.19
2022-08-01T08:07:26.669Z,14.19
2022-08-01T08:08:27.415Z,14.16
2022-08-01T08:09:27.597Z,14.18
2022-08-01T08:10:28.118Z,14.16
2022-08-01T08:11:30.031Z,14.15
2022-08-01T08:12:29.889Z,14.17
2022-08-01T08:13:29.362Z,14.15
2022-08-01T08:14:32.865Z,14.17
2022-08-01T08:15:30.710Z,14.18
2022-08-01T08:16:31.334Z,14.23
2022-08-01T08:17:36.185Z,14.19
2022-08-01T08:18:34.500Z,14.19
2022-08-01T08:19:37.471Z,14.22
2022-08-01T08:20:35.772Z,14.22
2022-08-01T08:21:36.024Z,14.23
2022-08-01T08:22:36.690Z,14.18
2022-08-01T08:23:42.123Z,14.22
2022-08-01T08:24:46.565Z,14.22
2022-08-01T08:25:44.493Z,14.19
2022-08-01T08:26:45.026Z,14.19
2022-08-01T08:27:45.336Z,14.21
2022-08-01T08:28:45.843Z,14.22
2022-08-01T08:29:46.171Z,14.25
2022-08-01T08:30:47.392Z,14.25
2022-08-01T08:31:51.339Z,14.25
2022-08-01T08:32:49.969Z,14.3
2022-08-01T08:33:50.187Z,14.29
2022-08-01T08:34:50.807Z,14.31
2022-08-01T08:35:53.648Z,14.32
2022-08-01T08:36:52.562Z,14.29
2022-08-01T08:37:53.264Z,14.31
2022-08-01T08:38:53.598Z,14.28
2022-08-01T08:39:54.013Z,14.33
2022-08-01T08:40:55.245Z,14.38
2022-08-01T08:41:55.666Z,14.39
2022-08-01T08:42:55.679Z,14.39
2022-08-01T08:43:56.088Z,14.43
2022-08-01T08:44:56.707Z,14.4
2022-08-01T08:46:00.076Z,14.39
2022-08-01T08:47:01.698Z,14.4
2022-08-01T08:48:00.114Z,14.38
2022-08-01T08:49:00.986Z,14.39
2022-08-01T08:50:01.249Z,14.41
2022-08-01T08:51:02.578Z,14.38
2022-08-01T08:52:02.697Z,14.39
2022-08-01T08:53:02.900Z,14.4
2022-08-01T08:54:05.164Z,14.37
2022-08-01T08:55:05.778Z,14.38
2022-08-01T08:56:08.759Z,14.42
2022-08-01T08:57:06.515Z,14.43
2022-08-01T08:58:06.830Z,14.45
2022-08-01T08:59:07.245Z,14.48
2022-08-01T09:00:09.000Z,14.49
2022-08-01T09:01:08.488Z,14.53
2022-08-01T09:02:09.201Z,14.53
2022-08-01T09:03:09.108Z,14.54
2022-08-01T09:04:10.249Z,14.57
2022-08-01T09:05:10.739Z,14.56
2022-08-01T09:06:11.283Z,14.57
2022-08-01T09:07:10.776Z,14.56
2022-08-01T09:08:11.499Z,14.58
2022-08-01T09:09:12.019Z,14.54
2022-08-01T09:10:12.238Z,14.55
2022-08-01T09:11:16.064Z,14.54
2022-08-01T09:12:18.379Z,14.55
2022-08-01T09:13:16.710Z,14.58
2022-08-01T09:14:20.245Z,14.58
2022-08-01T09:15:17.899Z,14.62
2022-08-01T09:16:18.315Z,14.59
2022-08-01T09:17:18.830Z,14.58
2022-08-01T09:19:40.668Z,14.69
2022-08-01T09:20:24.384Z,14.65
2022-08-01T09:21:24.692Z,14.65
2022-08-01T09:22:25.934Z,14.64
2022-08-01T09:24:30.844Z,14.62
2022-08-01T09:25:29.653Z,14.67
2022-08-01T09:26:34.964Z,14.68
2022-08-01T09:27:34.049Z,14.68
2022-08-01T09:28:33.539Z,14.67
2022-08-01T09:29:38.176Z,14.71
2022-08-01T09:30:40.321Z,14.66
2022-08-01T09:31:47.470Z,14.67
2022-08-01T09:34:42.186Z,14.82
2022-08-01T09:35:44.203Z,14.83
2022-08-01T09:37:47.396Z,14.88
2022-08-01T09:38:47.874Z,14.91
2022-08-01T09:41:57.490Z,14.84
2022-08-01T09:43:59.452Z,14.86
2022-08-01T09:44:59.365Z,14.91
2022-08-01T09:46:01.203Z,14.94
2022-08-01T09:47:00.390Z,15.01
2022-08-01T09:48:07.771Z,15
2022-08-01T09:49:10.639Z,14.98
2022-08-01T09:50:11.399Z,14.93
2022-08-01T09:51:09.685Z,14.99
2022-08-01T09:52:21.513Z,15.02
2022-08-01T09:53:24.975Z,15.06
2022-08-01T09:54:29.925Z,15.06
2022-08-01T09:55:23.580Z,15.08
2022-08-01T09:56:24.006Z,15.07
2022-08-01T09:57:24.527Z,15.09
2022-08-01T09:58:24.726Z,15.08
2022-08-01T09:59:56.640Z,15.13
2022-08-01T10:00:44.969Z,15.1
2022-08-01T10:02:38.786Z,15.11
2022-08-01T10:03:37.130Z,15.09
2022-08-01T10:04:37.837Z,15.13
2022-08-01T10:05:38.187Z,15.15
2022-08-01T10:06:39.735Z,15.18
2022-08-01T10:09:41.258Z,15.11
2022-08-01T10:10:41.505Z,15.14
2022-08-01T10:11:44.974Z,15.13
2022-08-01T10:12:46.005Z,15.16
2022-08-01T10:13:46.745Z,15.18
2022-08-01T10:14:50.361Z,15.23
2022-08-01T10:15:48.294Z,15.24
2022-08-01T10:16:53.714Z,15.27
2022-08-01T10:17:57.839Z,15.21
2022-08-01T10:18:50.459Z,15.23
2022-08-01T10:19:52.256Z,15.23
2022-08-01T10:20:51.154Z,15.28
2022-08-01T10:21:56.899Z,15.28
2022-08-01T10:23:00.398Z,15.28
2022-08-01T10:24:03.386Z,15.28
2022-08-01T10:25:04.842Z,15.28
2022-08-01T10:26:05.464Z,15.29
2022-08-01T10:27:09.101Z,15.31
2022-08-01T10:28:14.996Z,15.31
2022-08-01T10:29:46.287Z,15.32
2022-08-01T10:30:23.542Z,15.35
2022-08-01T10:31:19.006Z,15.37
2022-08-01T10:32:19.226Z,15.4
2022-08-01T10:33:51.784Z,15.42
2022-08-01T10:34:23.098Z,15.44
2022-08-01T10:35:47.186Z,15.44
2022-08-01T10:36:26.436Z,15.46
2022-08-01T10:37:27.017Z,15.46
2022-08-01T10:38:28.592Z,15.43
2022-08-01T10:39:27.160Z,15.44
2022-08-01T10:40:30.823Z,15.43
2022-08-01T10:41:29.327Z,15.46
2022-08-01T10:42:30.035Z,15.46
2022-08-01T10:43:29.839Z,15.47
2022-08-01T10:44:32.223Z,15.52
2022-08-01T10:45:31.704Z,15.54
2022-08-01T10:46:32.209Z,15.57
2022-08-01T10:49:37.828Z,15.62
2022-08-01T10:51:52.625Z,15.66
2022-08-01T10:52:43.118Z,15.58
2022-08-01T10:53:56.947Z,15.61
2022-08-01T10:54:52.320Z,15.65
2022-08-01T10:57:52.959Z,15.72
2022-08-01T10:59:59.377Z,15.69
2022-08-01T11:02:03.981Z,15.67
2022-08-01T11:03:03.549Z,15.71
2022-08-01T11:04:16.133Z,15.74
2022-08-01T11:05:14.254Z,15.77
2022-08-01T11:06:08.689Z,15.68
2022-08-01T11:07:18.860Z,15.72
2022-08-01T11:08:23.253Z,15.78
2022-08-01T11:11:24.388Z,15.87
2022-08-01T11:14:30.576Z,15.93
2022-08-01T11:15:30.133Z,15.93
2022-08-01T11:16:30.875Z,15.96
2022-08-01T11:18:32.742Z,16.01
2022-08-01T11:20:42.062Z,15.99
2022-08-01T11:33:14.600Z,16.17
2022-08-01T11:34:13.897Z,16.18
2022-08-01T11:35:17.059Z,16.17
2022-08-01T11:36:56.892Z,16.19
2022-08-01T11:37:30.290Z,16.17
2022-08-01T11:38:28.054Z,16.18
2022-08-01T11:39:20.590Z,16.15
2022-08-01T11:40:27.039Z,16.17
2022-08-01T11:41:37.428Z,16.21
2022-08-01T11:42:26.781Z,16.24
2022-08-01T11:43:25.930Z,16.23
2022-08-01T11:44:26.658Z,16.24
2022-08-01T11:48:37.950Z,16.23
2022-08-01T11:49:49.978Z,16.26
2022-08-01T11:50:42.977Z,16.25
2022-08-01T11:51:43.191Z,16.28
2022-08-01T11:52:44.011Z,16.33
2022-08-01T11:53:50.782Z,16.31
2022-08-01T11:54:52.534Z,16.34
2022-08-01T11:55:53.347Z,16.33
2022-08-01T11:56:51.224Z,16.37
2022-08-01T11:57:59.403Z,16.39
2022-08-01T11:59:00.248Z,16.37
2022-08-01T12:00:03.621Z,16.34
2022-08-01T12:01:01.881Z,16.37
2022-08-01T12:02:02.475Z,16.42
2022-08-01T12:03:05.433Z,16.4
2022-08-01T12:04:03.437Z,16.42
2022-08-01T12:05:12.125Z,16.46
2022-08-01T12:06:05.497Z,16.48
2022-08-01T12:07:18.722Z,16.51
2022-08-01T12:08:06.232Z,16.54
2022-08-01T12:10:16.386Z,16.63
2022-08-01T12:11:14.236Z,16.71
2022-08-01T12:12:18.543Z,16.75
2022-08-01T12:13:16.195Z,16.75
2022-08-01T12:14:22.549Z,16.76
2022-08-01T12:15:21.956Z,16.78
2022-08-01T12:16:20.614Z,16.81
2022-08-01T12:17:28.366Z,16.81
2022-08-01T12:18:26.882Z,16.82
2022-08-01T12:19:26.276Z,16.87
2022-08-01T12:20:32.281Z,16.81
2022-08-01T12:21:29.986Z,16.88
2022-08-01T12:22:30.492Z,16.87
2022-08-01T12:23:30.604Z,16.91
2022-08-01T12:24:31.012Z,16.93
2022-08-01T12:25:31.381Z,16.92
2022-08-01T12:26:43.518Z,16.92
2022-08-01T12:27:37.285Z,16.91
2022-08-01T12:28:42.304Z,16.87
2022-08-01T12:29:43.642Z,16.93
2022-08-01T12:30:41.291Z,16.94
2022-08-01T12:31:41.603Z,16.97
2022-08-01T12:32:44.273Z,16.95
2022-08-01T12:33:42.232Z,16.9
2022-08-01T12:34:42.543Z,16.91
2022-08-01T12:35:43.062Z,16.98
2022-08-01T12:36:43.378Z,17.05
2022-08-01T12:37:48.916Z,17.04
2022-08-01T12:38:53.939Z,17.09
2022-08-01T12:39:51.500Z,17.07
2022-08-01T12:40:53.585Z,17.08
2022-08-01T12:41:52.425Z,17.04
2022-08-01T12:42:58.787Z,17
2022-08-01T12:43:56.390Z,16.99
2022-08-01T12:44:56.951Z,17.06
2022-08-01T12:46:01.623Z,17.09
2022-08-01T12:46:59.939Z,17.08
2022-08-01T12:48:00.143Z,17.02
2022-08-01T12:49:00.168Z,17.06
2022-08-01T12:50:00.475Z,17.09
2022-08-01T12:51:04.053Z,17.07
2022-08-01T12:52:02.323Z,17.09
2022-08-01T12:53:03.047Z,17.09
2022-08-01T12:54:02.448Z,17.04
2022-08-01T12:55:09.517Z,17.02
2022-08-01T12:56:07.473Z,17.05
2022-08-01T12:58:16.182Z,17.09
2022-08-01T13:00:26.848Z,17.14
2022-08-01T13:01:27.422Z,17.13
2022-08-01T13:02:20.114Z,17.16
2022-08-01T13:03:22.062Z,17.14
2022-08-01T13:04:22.274Z,17.17
2022-08-01T13:05:25.969Z,17.17
2022-08-01T13:06:23.406Z,17.16
2022-08-01T13:07:23.827Z,17.19
2022-08-01T13:09:28.956Z,17.22
2022-08-01T13:10:31.524Z,17.17
2022-08-01T13:11:29.685Z,17.25
2022-08-01T13:12:30.410Z,17.2
2022-08-01T13:13:42.703Z,17.19
2022-08-01T13:14:35.342Z,17.17
2022-08-01T13:15:41.815Z,17.22
2022-08-01T13:16:57.207Z,17.22
2022-08-01T13:17:40.067Z,17.22
2022-08-01T13:18:40.899Z,17.21
2022-08-01T13:20:42.652Z,17.16
2022-08-01T13:22:51.677Z,17.12
2022-08-01T13:24:52.911Z,17.15
2022-08-01T13:25:55.993Z,17.17
2022-08-01T13:26:57.536Z,17.21
2022-08-01T13:31:08.215Z,17.27
2022-08-01T13:33:09.128Z,17.26
2022-08-01T13:34:10.075Z,17.26
2022-08-01T13:35:12.231Z,17.26
2022-08-01T13:36:10.606Z,17.23
2022-08-01T13:37:10.808Z,17.22
2022-08-01T13:38:11.226Z,17.22
2022-08-01T13:39:11.434Z,17.15
2022-08-01T13:40:12.778Z,17.17
2022-08-01T13:41:12.270Z,17.15
2022-08-01T13:42:19.164Z,17.16
2022-08-01T13:43:16.993Z,17.08
2022-08-01T13:44:17.612Z,17.1
2022-08-01T13:45:17.826Z,17.12
2022-08-01T13:46:20.191Z,17.1
2022-08-01T13:47:31.031Z,17.09
2022-08-01T13:48:24.599Z,17.07
2022-08-01T13:49:24.685Z,17.08
2022-08-01T13:50:25.336Z,17.1
2022-08-01T13:51:25.349Z,17.09
2022-08-01T13:52:25.658Z,17.08
2022-08-01T13:53:26.178Z,17.09
2022-08-01T13:54:26.998Z,17.08
2022-08-01T13:55:32.370Z,17.11
2022-08-01T13:56:32.136Z,17.05
2022-08-01T13:57:36.417Z,17.11
2022-08-01T13:58:34.656Z,17.14
2022-08-01T13:59:35.236Z,17.15
2022-08-01T14:00:35.432Z,17.14
2022-08-01T14:01:36.657Z,17.08
2022-08-01T14:02:36.265Z,17.07
2022-08-01T14:03:36.581Z,17.1
2022-08-01T14:04:36.997Z,17.12
2022-08-01T14:05:37.986Z,17.1
2022-08-01T14:06:38.140Z,17.11
2022-08-01T14:07:38.232Z,17.15
2022-08-01T14:08:38.671Z,17.14
2022-08-01T14:09:57.600Z,17.1
2022-08-01T14:10:41.345Z,17.12
2022-08-01T14:11:45.971Z,17.14
2022-08-01T14:12:45.746Z,17.15
2022-08-01T14:13:45.215Z,17.16
2022-08-01T14:14:44.228Z,17.16
2022-08-01T14:15:44.537Z,17.17
2022-08-01T14:16:45.274Z,17.17
2022-08-01T14:17:48.023Z,17.19
2022-08-01T14:18:46.429Z,17.19
2022-08-01T14:19:46.558Z,17.19
2022-08-01T14:20:46.655Z,17.2
2022-08-01T14:21:47.541Z,17.18
2022-08-01T14:22:48.001Z,17.2
2022-08-01T14:23:48.364Z,17.2
2022-08-01T14:24:48.403Z,17.21
2022-08-01T14:26:01.619Z,17.23
2022-08-01T14:26:53.433Z,17.25
2022-08-01T14:27:53.441Z,17.27
2022-08-01T14:28:54.154Z,17.25
2022-08-01T14:30:03.016Z,17.3
2022-08-01T14:31:00.000Z,17.37
2022-08-01T14:31:57.973Z,17.39
2022-08-01T14:32:58.297Z,17.38
2022-08-01T14:33:58.618Z,17.38
2022-08-01T14:34:59.132Z,17.38
2022-08-01T14:36:05.877Z,17.41
2022-08-01T14:37:01.846Z,17.39
2022-08-01T14:38:02.325Z,17.39
2022-08-01T14:39:02.960Z,17.37
2022-08-01T14:40:03.875Z,17.36